Time;durP1;ratioP1;P1;durP2;ratioP2;P2;SDS_P1;SDS_P2;PMS_P1;PMS_P2;Temp;Humidity;BMP_temperature;BMP_pressure;BME280_temperature;BME280_humidity;BME280_pressure;Samples;Min_cycle;Max_cycle;Signal;HPM_P1;HPM_P2
2022/09/03 00:01:07;;;;;;;2.43;1.50;;;11.40;99.90;;;;;;8345441;28;20189;-68
2022/09/03 00:05:11;;;;;;;2.07;1.30;;;11.40;99.90;;;;;;8344908;28;20268;-68
2022/09/03 00:09:21;;;;;;;1.67;1.40;;;11.40;99.90;;;;;;8364382;28;20187;-68
2022/09/03 00:13:32;;;;;;;1.90;1.60;;;11.40;99.90;;;;;;8384173;28;20254;-69
2022/09/03 00:17:44;;;;;;;1.80;1.30;;;11.40;1.00;;;;;;8346345;28;20192;-69
2022/09/03 00:21:50;;;;;;;3.17;1.80;;;11.30;3.30;;;;;;8347354;28;20190;-68
2022/09/03 00:26:10;;;;;;;3.13;1.90;;;11.40;99.90;;;;;;8347264;28;20209;-68
2022/09/03 00:30:14;;;;;;;3.70;1.43;;;11.40;99.90;;;;;;8348294;28;20174;-68
2022/09/03 00:34:29;;;;;;;2.13;1.73;;;11.40;99.90;;;;;;8367091;28;20198;-68
2022/09/03 00:38:31;;;;;;;2.00;1.80;;;11.40;99.90;;;;;;8368190;28;20192;-68
2022/09/03 00:42:44;;;;;;;1.90;1.40;;;11.40;99.90;;;;;;8361367;28;20193;-68
2022/09/03 00:47:12;;;;;;;1.97;1.30;;;11.40;1.80;;;;;;8382318;28;20192;-68
2022/09/03 00:51:51;;;;;;;1.60;1.40;;;11.40;99.90;;;;;;8338208;28;20251;-70
2022/09/03 00:56:12;;;;;;;1.40;1.30;;;11.40;99.90;;;;;;8338433;28;20202;-68
2022/09/03 01:00:18;;;;;;;2.20;1.63;;;11.40;99.90;;;;;;8348478;28;20222;-68
2022/09/03 01:04:40;;;;;;;4.47;2.83;;;11.40;92.10;;;;;;8347307;28;20235;-69
2022/09/03 01:08:49;;;;;;;3.93;2.40;;;11.30;1.00;;;;;;8347387;28;20189;-68
2022/09/03 01:13:04;;;;;;;3.73;1.90;;;11.20;1.00;;;;;;8365323;28;20223;-69
2022/09/03 01:17:43;;;;;;;4.33;1.80;;;11.10;99.90;;;;;;8343214;28;20236;-68
2022/09/03 01:22:19;;;;;;;4.43;2.13;;;11.00;99.90;;;;;;8319670;28;20206;-68
2022/09/03 01:26:59;;;;;;;4.83;2.60;;;10.90;1.00;;;;;;8349254;28;20301;-68
2022/09/03 01:31:11;;;;;;;5.00;2.03;;;10.90;99.90;;;;;;8341337;28;20193;-68
2022/09/03 01:35:28;;;;;;;1.77;1.60;;;10.90;1.00;;;;;;8346437;28;20335;-69
2022/09/03 01:40:07;;;;;;;1.87;1.33;;;10.80;1.00;;;;;;8378161;28;20197;-68
2022/09/03 01:44:16;;;;;;;2.17;1.47;;;10.70;46.20;;;;;;8347214;28;20209;-68
2022/09/03 01:48:50;;;;;;;1.80;1.40;;;10.60;99.90;;;;;;8346685;28;20289;-74
2022/09/03 01:53:17;;;;;;;2.07;1.20;;;10.60;1.00;;;;;;8346468;28;20210;-68
2022/09/03 01:57:32;;;;;;;2.27;1.57;;;10.50;1.00;;;;;;8342269;28;20193;-69
2022/09/03 02:01:44;;;;;;;1.97;1.40;;;10.50;82.20;;;;;;8346116;28;20283;-69
2022/09/03 02:05:45;;;;;;;2.87;1.50;;;10.50;1.00;;;;;;8358998;28;20251;-69
2022/09/03 02:09:46;;;;;;;2.70;1.13;;;10.50;1.00;;;;;;8347770;28;20236;-69
2022/09/03 02:13:53;;;;;;;2.33;1.50;;;10.50;1.00;;;;;;8348932;28;20201;-67
2022/09/03 02:17:58;;;;;;;2.47;1.30;;;10.40;1.00;;;;;;8353379;28;20194;-67
2022/09/03 02:21:59;;;;;;;1.97;1.60;;;10.40;99.90;;;;;;8347062;28;20201;-68
2022/09/03 02:26:02;;;;;;;2.33;1.60;;;10.30;99.90;;;;;;8346241;28;20210;-67
2022/09/03 02:30:03;;;;;;;1.67;1.40;;;10.10;99.90;;;;;;8342239;28;20182;-68
2022/09/03 02:34:04;;;;;;;1.50;1.40;;;10.00;37.80;;;;;;8345375;28;20189;-68
2022/09/03 02:38:24;;;;;;;3.20;1.30;;;9.90;99.90;;;;;;8348321;28;20190;-68
2022/09/03 02:42:26;;;;;;;1.97;1.57;;;9.90;99.90;;;;;;8352042;28;20190;-68
2022/09/03 02:46:34;;;;;;;2.17;1.77;;;9.80;99.90;;;;;;8346666;28;20213;-68
2022/09/03 02:50:40;;;;;;;1.93;1.40;;;9.60;99.90;;;;;;8346897;28;20190;-69
2022/09/03 02:54:43;;;;;;;1.90;1.40;;;9.50;99.90;;;;;;8342974;28;20181;-68
2022/09/03 02:58:44;;;;;;;1.87;1.27;;;9.30;61.70;;;;;;8343817;28;20250;-68
2022/09/03 03:02:45;;;;;;;3.17;1.50;;;9.10;99.90;;;;;;8331128;28;20243;-68
2022/09/03 03:06:49;;;;;;;2.27;1.47;;;9.00;99.90;;;;;;8340913;28;20252;-67
2022/09/03 03:10:57;;;;;;;1.60;1.50;;;8.80;99.90;;;;;;8345894;28;20209;-68
2022/09/03 03:14:58;;;;;;;4.13;1.70;;;8.70;5.60;;;;;;8344602;28;20275;-68
2022/09/03 03:18:59;;;;;;;1.87;1.70;;;8.60;99.90;;;;;;8343339;28;20213;-68
2022/09/03 03:23:04;;;;;;;3.93;2.00;;;8.40;98.60;;;;;;8344229;28;20190;-68
2022/09/03 03:27:09;;;;;;;2.53;1.63;;;8.30;99.90;;;;;;8362058;28;20283;-68
2022/09/03 03:31:13;;;;;;;2.03;1.80;;;8.20;99.90;;;;;;8335363;28;20185;-68
2022/09/03 03:35:14;;;;;;;2.07;1.80;;;8.00;99.90;;;;;;8373436;28;20211;-68
2022/09/03 03:39:15;;;;;;;2.00;1.80;;;7.90;99.90;;;;;;8346723;28;20200;-68
2022/09/03 03:43:16;;;;;;;5.27;2.17;;;7.80;99.90;;;;;;8354152;28;20217;-68
2022/09/03 03:47:17;;;;;;;1.90;1.70;;;7.80;99.90;;;;;;8352301;28;20273;-68
2022/09/03 03:51:18;;;;;;;2.17;1.80;;;7.70;99.90;;;;;;8354581;28;20192;-68
2022/09/03 03:55:19;;;;;;;2.30;2.00;;;7.70;99.90;;;;;;8384375;28;20190;-68
2022/09/03 03:59:20;;;;;;;3.03;1.93;;;7.60;99.90;;;;;;8352181;28;20192;-68
2022/09/03 04:03:20;;;;;;;3.60;2.20;;;7.60;99.90;;;;;;8381146;28;20419;-68
2022/09/03 04:07:21;;;;;;;3.50;2.30;;;7.60;99.90;;;;;;8354014;28;20249;-68
2022/09/03 04:11:27;;;;;;;2.03;1.70;;;7.60;99.90;;;;;;8351478;28;20223;-68
2022/09/03 04:15:27;;;;;;;2.67;2.03;;;7.50;99.90;;;;;;8373063;28;20215;-68
2022/09/03 04:19:29;;;;;;;2.30;1.73;;;7.50;99.90;;;;;;8354506;28;20201;-68
2022/09/03 04:23:34;;;;;;;2.63;1.83;;;7.40;99.90;;;;;;8354962;28;20221;-68
2022/09/03 04:27:35;;;;;;;2.47;2.27;;;7.40;99.90;;;;;;8366510;28;20221;-68
2022/09/03 04:31:37;;;;;;;2.90;2.00;;;7.40;99.90;;;;;;8352576;28;20218;-68
2022/09/03 04:35:40;;;;;;;3.03;2.53;;;7.40;99.90;;;;;;8355126;28;20541;-68
2022/09/03 04:39:41;;;;;;;2.93;2.30;;;7.50;99.90;;;;;;8348634;28;20196;-73
2022/09/03 04:43:44;;;;;;;2.37;2.07;;;7.50;99.90;;;;;;8350791;28;20535;-68
2022/09/03 04:47:58;;;;;;;3.07;2.37;;;7.60;99.90;;;;;;8345611;28;20186;-68
2022/09/03 04:52:00;;;;;;;4.10;2.80;;;7.70;99.90;;;;;;8349294;28;20189;-68
2022/09/03 04:56:01;;;;;;;3.40;2.40;;;7.80;99.90;;;;;;8347972;28;20194;-68
2022/09/03 05:00:03;;;;;;;3.13;2.40;;;7.90;99.90;;;;;;8347503;28;20264;-68
2022/09/03 05:04:05;;;;;;;4.50;2.10;;;8.00;99.90;;;;;;8345228;28;20206;-68
2022/09/03 05:08:06;;;;;;;3.67;2.47;;;8.10;99.90;;;;;;8347293;28;20210;-69
2022/09/03 05:12:07;;;;;;;4.27;2.30;;;8.20;99.90;;;;;;8350590;28;20205;-68
2022/09/03 05:16:10;;;;;;;2.97;2.40;;;8.30;99.90;;;;;;8348318;28;20186;-69
2022/09/03 05:20:11;;;;;;;3.43;2.50;;;8.50;99.90;;;;;;8343697;28;20228;-68
2022/09/03 05:24:13;;;;;;;3.40;2.50;;;8.60;99.90;;;;;;8347281;28;20209;-68
2022/09/03 05:28:14;;;;;;;2.90;2.60;;;8.80;99.90;;;;;;8363836;28;20182;-68
2022/09/03 05:32:16;;;;;;;5.57;2.73;;;9.00;99.90;;;;;;8345701;28;20220;-68
2022/09/03 05:36:19;;;;;;;5.70;3.37;;;9.10;99.90;;;;;;8347303;28;20194;-68
2022/09/03 05:40:20;;;;;;;4.60;3.43;;;9.40;99.90;;;;;;8346772;28;20236;-68
2022/09/03 05:44:22;;;;;;;4.70;2.97;;;9.80;99.90;;;;;;8344576;28;20202;-69
2022/09/03 05:48:23;;;;;;;8.90;6.63;;;10.20;99.90;;;;;;8344947;28;20273;-68
2022/09/03 05:52:23;;;;;;;10.20;6.10;;;10.80;99.90;;;;;;8347400;28;20189;-68
2022/09/03 05:56:26;;;;;;;5.10;2.93;;;11.40;99.90;;;;;;8346795;28;20244;-69
2022/09/03 06:00:27;;;;;;;5.13;2.73;;;11.90;99.90;;;;;;8341632;28;20266;-68
2022/09/03 06:04:28;;;;;;;2.70;2.13;;;12.10;99.90;;;;;;8342127;28;20209;-68
2022/09/03 06:08:29;;;;;;;4.13;2.10;;;12.20;99.90;;;;;;8350213;28;20196;-68
2022/09/03 06:12:30;;;;;;;2.60;1.93;;;12.30;48.50;;;;;;8344016;28;20595;-68
2022/09/03 06:16:32;;;;;;;3.80;1.93;;;12.40;1.00;;;;;;8348835;28;20212;-67
2022/09/03 06:20:33;;;;;;;5.00;2.13;;;12.60;1.00;;;;;;8344843;28;20590;-67
2022/09/03 06:24:34;;;;;;;3.77;1.90;;;12.80;99.90;;;;;;8348528;28;20227;-68
2022/09/03 06:28:37;;;;;;;4.57;2.00;;;12.90;99.90;;;;;;8349196;28;20189;-69
2022/09/03 06:32:44;;;;;;;6.80;2.27;;;13.10;99.90;;;;;;8345812;28;20190;-68
2022/09/03 06:36:45;;;;;;;11.23;5.57;;;13.30;99.90;;;;;;8346390;28;20193;-68
2022/09/03 06:40:52;;;;;;;4.63;3.10;;;13.50;99.90;;;;;;8346290;28;20376;-68
2022/09/03 06:44:52;;;;;;;4.27;1.93;;;13.60;13.40;;;;;;8345927;28;20296;-68
2022/09/03 06:48:53;;;;;;;4.13;1.73;;;13.70;99.90;;;;;;8350966;28;20189;-68
2022/09/03 06:52:54;;;;;;;6.23;3.13;;;13.70;48.10;;;;;;8344337;28;20190;-68
2022/09/03 06:56:55;;;;;;;5.30;3.43;;;13.70;16.70;;;;;;8347708;28;20186;-69
2022/09/03 07:01:08;;;;;;;3.70;1.80;;;13.80;27.10;;;;;;8344370;28;20274;-68
2022/09/03 07:05:08;;;;;;;2.80;1.50;;;13.90;1.00;;;;;;8338039;28;20528;-69
2022/09/03 07:09:11;;;;;;;4.03;2.23;;;13.90;1.00;;;;;;8359931;28;20228;-68
2022/09/03 07:13:12;;;;;;;3.27;1.70;;;14.00;1.00;;;;;;8343998;28;20202;-68
2022/09/03 07:17:13;;;;;;;4.13;1.53;;;14.00;1.00;;;;;;8346145;28;20182;-68
2022/09/03 07:21:16;;;;;;;3.90;2.97;;;13.90;1.00;;;;;;8345761;28;20208;-67
2022/09/03 07:25:17;;;;;;;4.67;2.03;;;13.90;1.00;;;;;;8344024;28;20214;-68
2022/09/03 07:29:18;;;;;;;2.13;1.40;;;13.90;1.00;;;;;;8350139;28;20181;-67
2022/09/03 07:33:20;;;;;;;5.20;1.70;;;13.90;1.00;;;;;;8348012;28;20189;-67
2022/09/03 07:37:20;;;;;;;2.93;1.70;;;13.90;1.00;;;;;;8344442;28;20615;-67
2022/09/03 07:41:22;;;;;;;2.53;1.43;;;13.90;1.00;;;;;;8354757;28;20209;-68
2022/09/03 07:45:22;;;;;;;2.53;1.47;;;13.90;1.00;;;;;;8345526;28;20205;-67
2022/09/03 07:49:23;;;;;;;3.90;1.73;;;13.90;1.00;;;;;;8340791;28;20182;-67
2022/09/03 07:53:24;;;;;;;4.93;1.50;;;14.00;1.00;;;;;;8348858;28;20193;-66
2022/09/03 07:57:25;;;;;;;2.73;1.70;;;14.20;1.00;;;;;;8347880;28;20259;-68
2022/09/03 08:01:31;;;;;;;2.10;1.47;;;14.40;99.90;;;;;;8343828;28;20269;-67
2022/09/03 08:05:32;;;;;;;3.30;1.30;;;14.40;99.90;;;;;;8340278;28;20210;-67
2022/09/03 08:09:33;;;;;;;3.97;1.90;;;14.50;99.90;;;;;;8346200;28;20189;-67
2022/09/03 08:13:34;;;;;;;7.57;2.03;;;14.60;99.90;;;;;;8346782;28;20209;-68
2022/09/03 08:17:42;;;;;;;6.27;2.20;;;14.60;99.90;;;;;;8348032;28;20189;-67
2022/09/03 08:21:43;;;;;;;8.53;2.50;;;14.70;99.90;;;;;;8344306;28;20194;-68
2022/09/03 08:25:44;;;;;;;4.17;1.73;;;15.00;99.90;;;;;;8378493;28;20306;-68
2022/09/03 08:29:47;;;;;;;4.30;1.97;;;15.20;99.90;;;;;;8349587;28;20186;-69
2022/09/03 08:33:50;;;;;;;4.90;2.77;;;15.50;99.90;;;;;;8341818;28;20347;-67
2022/09/03 08:37:52;;;;;;;6.03;2.13;;;15.80;99.90;;;;;;8353194;28;20209;-68
2022/09/03 08:42:07;;;;;;;3.07;1.80;;;16.00;99.90;;;;;;8350329;28;20186;-69
2022/09/03 08:46:08;;;;;;;5.27;2.70;;;16.10;99.90;;;;;;8353648;28;20231;-68
2022/09/03 08:50:20;;;;;;;6.00;2.50;;;16.30;99.90;;;;;;8353402;28;20260;-68
2022/09/03 08:54:25;;;;;;;2.30;2.00;;;16.50;99.90;;;;;;8349690;28;20185;-67
2022/09/03 08:58:28;;;;;;;4.03;2.17;;;16.70;99.90;;;;;;8346683;28;20189;-67
2022/09/03 09:02:56;;;;;;;3.77;1.90;;;16.90;99.90;;;;;;8351951;28;20185;-67
2022/09/03 09:07:07;;;;;;;3.80;1.93;;;17.10;99.90;;;;;;8351718;28;20240;-66
2022/09/03 09:11:31;;;;;;;3.57;1.70;;;17.30;95.80;;;;;;8383070;28;20218;-67
2022/09/03 09:15:42;;;;;;;4.50;1.63;;;17.50;77.90;;;;;;8365635;28;20208;-67
2022/09/03 09:20:11;;;;;;;4.87;2.00;;;17.50;93.30;;;;;;8351027;28;20749;-67
2022/09/03 09:24:25;;;;;;;4.37;1.90;;;17.60;90.30;;;;;;8349401;28;20240;-67
2022/09/03 09:28:36;;;;;;;8.27;2.27;;;17.80;91.10;;;;;;8350235;28;20229;-63
2022/09/03 09:32:38;;;;;;;4.13;2.13;;;18.10;66.30;;;;;;8352124;28;20185;-67
2022/09/03 09:36:49;;;;;;;2.83;1.87;;;18.40;30.50;;;;;;8345854;28;20223;-67
2022/09/03 09:40:50;;;;;;;6.37;2.60;;;18.60;26.60;;;;;;8347125;28;20214;-68
2022/09/03 09:44:51;;;;;;;4.00;2.47;;;18.90;1.00;;;;;;8350308;28;20216;-67
2022/09/03 09:48:55;;;;;;;5.53;2.87;;;19.20;1.00;;;;;;8353713;28;20181;-68
2022/09/03 09:53:13;;;;;;;3.27;2.33;;;19.60;1.00;;;;;;8347079;28;20240;-63
2022/09/03 09:57:17;;;;;;;6.93;3.40;;;20.00;1.00;;;;;;8351358;28;20220;-64
2022/09/03 10:01:24;;;;;;;4.90;2.87;;;20.20;1.00;;;;;;8344381;28;20257;-69
2022/09/03 10:05:32;;;;;;;5.63;2.70;;;20.30;1.00;;;;;;8346700;28;20209;-66
2022/09/03 10:09:33;;;;;;;8.73;2.63;;;20.50;1.00;;;;;;8348500;28;20593;-66
2022/09/03 10:13:42;;;;;;;5.53;2.63;;;20.80;1.00;;;;;;8344317;28;20209;-66
2022/09/03 10:17:45;;;;;;;3.90;2.30;;;21.30;1.00;;;;;;8345397;28;20189;-66
2022/09/03 10:22:01;;;;;;;4.90;2.50;;;21.40;1.00;;;;;;8339240;28;20187;-68
2022/09/03 10:26:28;;;;;;;6.93;2.90;;;21.50;1.00;;;;;;8378831;28;20212;-68
2022/09/03 10:30:33;;;;;;;4.63;2.50;;;21.50;1.00;;;;;;8378525;28;20189;-64
2022/09/03 10:34:36;;;;;;;5.03;2.33;;;21.30;1.00;;;;;;8346383;28;20186;-67
2022/09/03 10:38:40;;;;;;;4.63;2.73;;;21.50;1.00;;;;;;8345521;28;20178;-65
2022/09/03 10:43:15;;;;;;;5.13;2.63;;;21.60;1.00;;;;;;8346442;28;20253;-65
2022/09/03 10:47:25;;;;;;;5.87;2.60;;;21.50;1.00;;;;;;8346832;28;20182;-66
2022/09/03 10:51:32;;;;;;;7.27;2.40;;;21.50;1.00;;;;;;8344240;28;20178;-63
2022/09/03 10:56:02;;;;;;;3.53;2.10;;;21.50;1.00;;;;;;8344335;28;20232;-64
2022/09/03 11:00:17;;;;;;;6.87;2.63;;;21.40;1.00;;;;;;8348009;28;20225;-64
2022/09/03 11:04:33;;;;;;;6.13;2.37;;;21.50;1.00;;;;;;8345095;28;20210;-67
2022/09/03 11:08:59;;;;;;;5.07;2.30;;;21.40;1.00;;;;;;8353200;28;20247;-66
2022/09/03 11:13:09;;;;;;;5.50;2.27;;;21.70;1.00;;;;;;8343289;28;20886;-67
2022/09/03 11:17:19;;;;;;;4.80;1.80;;;22.00;1.00;;;;;;8347299;28;20198;-68
2022/09/03 11:21:24;;;;;;;5.23;2.50;;;22.30;1.00;;;;;;8377135;28;20216;-67
2022/09/03 11:25:32;;;;;;;4.83;2.23;;;22.50;1.00;;;;;;8348581;28;20343;-66
2022/09/03 11:29:48;;;;;;;5.50;2.13;;;22.70;1.00;;;;;;8342263;28;20177;-67
2022/09/03 11:34:13;;;;;;;4.43;2.17;;;22.80;1.00;;;;;;8345924;28;20190;-67
2022/09/03 11:38:14;;;;;;;3.40;2.03;;;23.00;1.00;;;;;;8346231;28;20216;-64
2022/09/03 11:42:29;;;;;;;4.83;2.47;;;23.10;1.00;;;;;;8347127;28;20178;-71
2022/09/03 11:46:30;;;;;;;3.83;1.90;;;23.50;1.00;;;;;;8344869;28;20284;-66
2022/09/03 11:50:33;;;;;;;7.20;2.03;;;23.80;1.00;;;;;;8346912;28;20193;-67
2022/09/03 11:54:43;;;;;;;4.23;2.23;;;23.90;1.00;;;;;;8343035;28;20496;-66
2022/09/03 11:58:44;;;;;;;4.50;2.40;;;23.60;1.00;;;;;;8346176;28;20220;-66
2022/09/03 12:02:55;;;;;;;5.67;2.40;;;23.30;1.00;;;;;;8352354;28;20220;-67
2022/09/03 12:07:11;;;;;;;4.83;1.93;;;22.90;1.00;;;;;;8371315;28;20241;-67
2022/09/03 12:11:43;;;;;;;5.17;2.10;;;22.50;1.00;;;;;;8367167;28;20178;-66
2022/09/03 12:16:07;;;;;;;5.37;2.10;;;22.20;1.00;;;;;;8349613;28;20182;-65
2022/09/03 12:20:13;;;;;;;2.47;1.80;;;22.20;1.00;;;;;;8351021;28;20193;-65
2022/09/03 12:24:16;;;;;;;3.20;1.73;;;22.30;1.00;;;;;;8353079;28;20495;-65
2022/09/03 12:28:22;;;;;;;5.47;2.20;;;22.10;1.00;;;;;;8350860;28;20182;-67
2022/09/03 12:32:23;;;;;;;3.97;2.03;;;21.80;1.00;;;;;;8349219;28;20208;-64
2022/09/03 12:36:25;;;;;;;3.80;2.10;;;21.80;1.00;;;;;;8351839;28;20182;-67
2022/09/03 12:40:28;;;;;;;5.27;2.37;;;22.00;1.00;;;;;;8353412;28;20181;-65
2022/09/03 12:44:31;;;;;;;2.60;1.70;;;21.90;1.00;;;;;;8350268;28;20558;-66
2022/09/03 12:48:32;;;;;;;2.77;2.00;;;21.90;1.00;;;;;;8349318;28;20189;-63
2022/09/03 12:52:43;;;;;;;2.70;1.60;;;21.70;1.00;;;;;;8348883;28;20186;-66
2022/09/03 12:56:53;;;;;;;2.97;1.60;;;21.70;1.00;;;;;;8352179;28;20178;-66
2022/09/03 13:00:57;;;;;;;4.10;2.00;;;21.70;1.00;;;;;;8348970;28;20240;-64
2022/09/03 13:04:59;;;;;;;3.00;1.80;;;21.60;1.00;;;;;;8349511;28;20209;-69
2022/09/03 13:09:04;;;;;;;4.13;2.07;;;21.70;1.00;;;;;;8355070;28;20178;-66
2022/09/03 13:13:30;;;;;;;5.97;2.57;;;21.70;1.00;;;;;;8347541;28;20201;-66
2022/09/03 13:17:43;;;;;;;4.03;2.13;;;21.80;1.00;;;;;;8349600;28;20189;-67
2022/09/03 13:21:59;;;;;;;3.07;1.83;;;22.00;1.00;;;;;;8350326;28;20177;-65
2022/09/03 13:26:15;;;;;;;4.87;2.60;;;22.40;1.00;;;;;;8352379;28;20210;-72
2022/09/03 13:30:30;;;;;;;4.10;2.30;;;22.60;1.00;;;;;;8339177;28;20174;-66
2022/09/03 13:34:40;;;;;;;5.33;2.03;;;22.60;1.00;;;;;;8340567;28;20235;-66
2022/09/03 13:39:05;;;;;;;4.33;2.23;;;22.70;1.00;;;;;;8359735;28;20186;-68
2022/09/03 13:43:32;;;;;;;4.07;1.80;;;22.70;1.00;;;;;;8355212;28;20185;-67
2022/09/03 13:50:20;;;;;;;4.87;2.40;;;22.40;1.00;;;;;;8348499;28;20193;-66
2022/09/03 13:52:08;;;;;;;2.50;1.90;;;22.10;1.00;;;;;;8346249;28;20207;-67
2022/09/03 13:56:45;;;;;;;4.57;1.83;;;22.00;1.00;;;;;;8346810;28;20194;-65
2022/09/03 14:00:53;;;;;;;6.10;2.67;;;21.80;1.00;;;;;;8344162;28;20186;-66
2022/09/03 14:04:57;;;;;;;3.70;2.10;;;21.60;1.00;;;;;;8361695;28;20217;-66
2022/09/03 14:09:25;;;;;;;4.50;1.80;;;21.70;1.00;;;;;;8351586;28;20169;-68
2022/09/03 14:13:45;;;;;;;3.57;2.13;;;21.80;1.00;;;;;;8323503;28;20443;-66
2022/09/03 14:18:15;;;;;;;3.73;2.00;;;21.80;1.00;;;;;;8368154;28;20189;-67
2022/09/03 14:22:25;;;;;;;3.93;2.07;;;21.70;1.00;;;;;;8348822;28;20215;-63
2022/09/03 14:26:32;;;;;;;3.40;2.10;;;21.80;1.00;;;;;;8347821;28;20294;-67
2022/09/03 14:30:51;;;;;;;5.93;2.00;;;21.90;1.00;;;;;;8344835;28;20604;-68
2022/09/03 14:35:10;;;;;;;3.57;2.23;;;21.90;1.00;;;;;;8345848;28;20186;-64
2022/09/03 14:39:49;;;;;;;3.90;2.27;;;21.80;1.00;;;;;;8341678;28;20190;-66
2022/09/03 14:44:23;;;;;;;4.80;2.07;;;21.70;1.00;;;;;;8346038;28;20220;-65
2022/09/03 14:48:51;;;;;;;9.47;4.73;;;21.70;1.00;;;;;;8356633;28;20194;-65
2022/09/03 14:53:11;;;;;;;7.40;2.50;;;21.70;1.00;;;;;;8361537;28;20276;-68
2022/09/03 14:57:41;;;;;;;4.17;2.40;;;21.70;1.00;;;;;;8335712;28;20186;-67
2022/09/03 15:01:50;;;;;;;3.23;1.90;;;21.70;1.00;;;;;;8344174;28;20590;-69
2022/09/03 15:05:57;;;;;;;3.17;2.10;;;21.70;1.00;;;;;;8343246;28;20603;-67
2022/09/03 15:10:22;;;;;;;2.90;2.10;;;21.70;1.00;;;;;;8346244;28;20178;-66
2022/09/03 15:14:46;;;;;;;4.60;2.47;;;21.70;1.00;;;;;;8348945;28;20209;-66
2022/09/03 15:19:36;;;;;;;4.90;2.03;;;21.60;1.00;;;;;;8348651;28;20208;-67
2022/09/03 15:23:52;;;;;;;7.07;2.40;;;21.60;1.00;;;;;;8354093;28;20213;-67
2022/09/03 15:28:19;;;;;;;6.67;2.40;;;21.60;1.00;;;;;;8340906;28;20184;-68
2022/09/03 15:32:24;;;;;;;4.43;2.03;;;21.50;1.00;;;;;;8344607;28;20250;-69
2022/09/03 15:36:38;;;;;;;5.87;2.20;;;21.50;1.00;;;;;;8337597;28;20178;-67
2022/09/03 15:40:45;;;;;;;7.13;2.30;;;21.40;1.00;;;;;;8352633;28;20185;-68
2022/09/03 15:44:53;;;;;;;4.73;2.80;;;21.30;1.00;;;;;;8343884;28;20267;-68
2022/09/03 15:49:02;;;;;;;5.33;2.50;;;21.20;1.00;;;;;;8342769;28;20170;-64
2022/09/03 15:53:11;;;;;;;7.30;2.47;;;21.00;1.00;;;;;;8346265;28;20276;-66
2022/09/03 15:57:35;;;;;;;6.67;2.50;;;20.80;1.00;;;;;;8336598;28;20178;-67
2022/09/03 16:01:44;;;;;;;4.17;2.57;;;20.60;1.00;;;;;;8342902;28;20231;-65
2022/09/03 16:05:56;;;;;;;4.17;2.33;;;20.50;1.00;;;;;;8361840;28;20210;-64
2022/09/03 16:10:06;;;;;;;4.57;2.40;;;20.30;1.00;;;;;;8350494;28;20216;-66
2022/09/03 16:14:36;;;;;;;7.73;2.93;;;20.30;1.00;;;;;;8358474;28;20487;-66
2022/09/03 16:18:53;;;;;;;5.10;2.63;;;20.30;1.00;;;;;;8342027;28;20709;-66
2022/09/03 16:23:09;;;;;;;10.23;3.80;;;20.30;1.00;;;;;;8331988;28;20312;-67
2022/09/03 16:27:24;;;;;;;15.13;8.00;;;20.20;1.00;;;;;;8339908;28;20214;-67
2022/09/03 16:31:53;;;;;;;6.20;3.07;;;19.90;1.00;;;;;;8376664;28;20222;-67
2022/09/03 16:36:38;;;;;;;3.87;2.60;;;19.80;1.00;;;;;;8342791;28;20613;-66
2022/09/03 16:40:39;;;;;;;4.87;2.60;;;19.70;1.00;;;;;;8342539;28;20223;-67
2022/09/03 16:45:06;;;;;;;4.33;2.70;;;19.60;1.00;;;;;;8343467;28;20209;-65
2022/09/03 16:49:17;;;;;;;5.30;2.53;;;19.50;1.00;;;;;;8349169;28;20253;-67
2022/09/03 16:53:27;;;;;;;6.03;2.80;;;19.30;1.00;;;;;;8341773;28;20185;-66
2022/09/03 16:57:34;;;;;;;7.30;3.03;;;19.20;1.00;;;;;;8343105;28;20178;-68
2022/09/03 17:01:38;;;;;;;5.97;3.30;;;19.10;1.00;;;;;;8350094;28;20177;-67
2022/09/03 17:05:59;;;;;;;9.33;4.20;;;19.00;1.00;;;;;;8347672;28;20220;-64
2022/09/03 17:10:09;;;;;;;4.90;2.70;;;18.90;1.00;;;;;;8352851;28;20182;-66
2022/09/03 17:14:25;;;;;;;5.93;3.53;;;18.80;1.00;;;;;;8350384;28;20201;-67
2022/09/03 17:18:53;;;;;;;12.50;4.33;;;18.70;1.00;;;;;;8342336;28;20255;-67
2022/09/03 17:23:08;;;;;;;8.33;4.50;;;18.50;1.00;;;;;;8354564;28;20185;-67
2022/09/03 17:27:19;;;;;;;7.10;4.20;;;18.40;1.00;;;;;;8345316;28;20202;-67
2022/09/03 17:31:35;;;;;;;7.40;3.00;;;18.20;4.50;;;;;;8346820;28;20228;-67
2022/09/03 17:35:51;;;;;;;6.93;3.20;;;18.00;19.60;;;;;;8349797;28;20182;-67
2022/09/03 17:40:20;;;;;;;8.40;3.50;;;17.70;48.90;;;;;;8350377;28;20190;-68
2022/09/03 17:44:46;;;;;;;4.37;3.10;;;17.50;84.50;;;;;;8341546;28;20268;-68
2022/09/03 17:48:50;;;;;;;7.00;3.87;;;17.40;99.90;;;;;;8352151;28;20189;-68
2022/09/03 17:53:08;;;;;;;5.93;4.37;;;17.30;99.90;;;;;;8361171;28;20174;-69
2022/09/03 17:57:30;;;;;;;7.57;4.50;;;17.10;99.90;;;;;;8346185;28;21492;-67
2022/09/03 18:01:36;;;;;;;7.17;4.67;;;16.90;99.90;;;;;;8378411;28;20196;-68
2022/09/03 18:05:48;;;;;;;8.30;4.50;;;16.80;99.90;;;;;;8347945;28;20206;-66
2022/09/03 18:10:06;;;;;;;12.77;7.13;;;16.60;99.90;;;;;;8358728;28;20189;-68
2022/09/03 18:14:40;;;;;;;7.90;5.00;;;16.50;99.90;;;;;;8345522;28;20202;-68
2022/09/03 18:18:49;;;;;;;8.57;5.23;;;16.30;99.90;;;;;;8350741;28;20232;-68
2022/09/03 20:12:28;;;;;;;4.43;3.40;;;14.80;99.90;;;;;;8343009;28;20684;-68
2022/09/03 20:16:40;;;;;;;5.50;3.40;;;14.70;99.90;;;;;;8363435;28;20185;-67
2022/09/03 20:20:57;;;;;;;6.87;4.23;;;14.50;1.00;;;;;;8344405;28;20205;-68
2022/09/03 20:25:27;;;;;;;7.17;4.70;;;14.40;1.00;;;;;;8352073;28;20232;-66
2022/09/03 20:29:54;;;;;;;7.93;4.53;;;14.30;15.70;;;;;;8348112;28;20198;-67
2022/09/03 20:34:04;;;;;;;4.93;3.97;;;14.30;60.90;;;;;;8385519;28;20189;-68
2022/09/03 20:38:33;;;;;;;5.03;3.77;;;14.20;99.90;;;;;;8353021;28;20597;-68
2022/09/03 20:42:46;;;;;;;8.70;4.27;;;14.10;99.90;;;;;;8352658;28;20189;-68
2022/09/03 20:47:20;;;;;;;7.33;4.70;;;14.00;99.90;;;;;;8366083;28;20218;-67
2022/09/03 20:51:27;;;;;;;6.47;3.97;;;14.00;1.00;;;;;;8348228;28;20190;-67
2022/09/03 20:55:41;;;;;;;6.83;4.33;;;13.90;1.00;;;;;;8350709;28;20201;-67
2022/09/03 21:00:22;;;;;;;7.10;5.00;;;13.90;1.00;;;;;;8342766;28;20212;-67
2022/09/03 21:04:40;;;;;;;13.73;7.60;;;13.90;1.00;;;;;;8338439;28;20206;-67
2022/09/03 21:08:59;;;;;;;9.67;6.37;;;13.90;1.00;;;;;;8354436;28;20220;-67
2022/09/03 21:13:05;;;;;;;7.20;5.37;;;13.80;1.00;;;;;;8364967;28;20279;-67
2022/09/03 21:17:29;;;;;;;8.43;5.83;;;13.80;1.00;;;;;;8352214;28;20178;-68
2022/09/03 21:21:54;;;;;;;7.70;5.37;;;13.70;9.70;;;;;;8348181;28;20194;-67
2022/09/03 21:26:05;;;;;;;7.80;4.87;;;13.60;99.90;;;;;;8347160;28;20627;-67
2022/09/03 21:30:09;;;;;;;7.40;5.03;;;13.60;99.90;;;;;;8348830;28;20206;-68
2022/09/03 21:34:26;;;;;;;7.50;4.63;;;13.60;99.90;;;;;;8349863;28;20178;-68
2022/09/03 21:38:32;;;;;;;5.03;4.10;;;13.50;99.90;;;;;;8349289;28;20189;-69
2022/09/03 21:42:47;;;;;;;7.30;5.20;;;13.50;99.90;;;;;;8347765;28;20700;-67
2022/09/03 21:47:05;;;;;;;8.23;5.33;;;13.50;1.00;;;;;;8345144;28;20209;-69
2022/09/03 21:51:13;;;;;;;8.03;5.57;;;13.50;1.00;;;;;;8347883;28;20185;-68
2022/09/03 21:55:16;;;;;;;7.80;5.47;;;13.60;1.00;;;;;;8348217;28;20192;-67
2022/09/03 21:59:36;;;;;;;7.67;5.33;;;13.60;1.00;;;;;;8363769;28;20207;-67
2022/09/03 22:03:40;;;;;;;6.60;4.97;;;13.50;1.00;;;;;;8348364;28;20216;-67
2022/09/03 22:08:16;;;;;;;6.67;4.53;;;13.50;1.00;;;;;;8349972;28;20277;-67
2022/09/03 22:12:43;;;;;;;6.83;5.17;;;13.40;54.00;;;;;;8344832;28;20420;-67
2022/09/03 22:16:54;;;;;;;7.07;4.87;;;13.40;99.90;;;;;;8345431;28;20204;-68
2022/09/03 22:21:11;;;;;;;8.00;4.70;;;13.30;99.90;;;;;;8346444;28;20213;-67
2022/09/03 22:25:22;;;;;;;7.17;5.47;;;13.20;99.90;;;;;;8362676;28;20308;-67
2022/09/03 22:29:31;;;;;;;6.60;4.70;;;13.20;1.00;;;;;;8382509;28;20284;-68
2022/09/03 22:33:57;;;;;;;7.70;5.03;;;13.20;24.50;;;;;;8335684;28;20448;-67
2022/09/03 22:38:10;;;;;;;5.53;4.20;;;13.10;99.90;;;;;;8339273;28;20243;-67
2022/09/03 22:42:32;;;;;;;4.97;4.07;;;12.90;99.90;;;;;;8346335;28;20190;-67
2022/09/03 22:46:51;;;;;;;5.53;4.50;;;12.70;1.00;;;;;;8338766;28;20304;-67
2022/09/03 22:50:57;;;;;;;6.47;4.30;;;12.50;99.90;;;;;;8376570;28;20246;-68
2022/09/03 22:55:00;;;;;;;6.67;5.10;;;12.50;1.00;;;;;;8345956;28;20188;-67
2022/09/03 22:59:19;;;;;;;7.23;5.40;;;12.40;1.00;;;;;;8344009;28;20189;-67
2022/09/03 23:03:35;;;;;;;7.10;5.30;;;12.20;99.90;;;;;;8379309;28;20190;-68
2022/09/03 23:08:08;;;;;;;7.53;5.10;;;12.00;99.90;;;;;;8355560;28;20216;-67
2022/09/03 23:12:15;;;;;;;7.80;4.67;;;11.70;1.00;;;;;;8344132;28;20234;-69
2022/09/03 23:16:54;;;;;;;7.17;4.90;;;11.50;1.00;;;;;;8380253;28;20191;-69
2022/09/03 23:21:10;;;;;;;6.07;4.13;;;11.30;99.90;;;;;;8344943;28;20216;-68
2022/09/03 23:25:18;;;;;;;6.30;4.93;;;11.20;99.90;;;;;;8335259;28;20207;-68
2022/09/03 23:29:36;;;;;;;6.37;5.27;;;11.20;1.00;;;;;;8377412;28;20274;-67
2022/09/03 23:33:38;;;;;;;6.07;4.47;;;11.30;98.50;;;;;;8342677;28;20195;-67
2022/09/03 23:38:07;;;;;;;7.43;5.20;;;11.30;98.80;;;;;;8344905;28;20226;-68
2022/09/03 23:42:21;;;;;;;5.20;4.40;;;11.40;30.00;;;;;;8341273;28;20183;-67
2022/09/03 23:46:50;;;;;;;5.13;4.10;;;11.40;1.00;;;;;;8376860;28;20208;-68